Aviation Digital Data Service (ADDS)

Output produced by METARs form (1857 UTC 18 June 2019)
found at http://www.aviationweather.gov/metar/data/
 
KAAT 181755Z AUTO 10SM CLR 24/02 A3019 RMK AO2 SLP178 T02440022 10244 20106 58008
KACV 181853Z AUTO 32012KT 8SM CLR 16/12 A3006 RMK AO2 SLP185 T01610117
KACV 181735Z 1818/1918 27009KT 6SM HZ SCT005 
     FM182000 33012G22KT P6SM SKC 
     FM190300 32009KT 5SM BR FEW008 
     FM190700 16006KT 3SM BR BKN008 
     FM191300 14003KT 3SM BR OVC006
       
KAUN 181835Z AUTO 26006KT 10SM CLR 33/16 A2993 RMK A01
KAVX 181851Z AUTO 04005KT 10SM OVC011 18/14 A3001 RMK AO2 SLP152 T01780139 $
KBFL 181854Z VRB05KT 10SM CLR 33/15 A2988 RMK AO2 SLP112 T03280150
KBFL 181737Z 1818/1918 VRB05KT P6SM FEW200
       
KL35 181835Z AUTO 05008G18KT 10SM CLR 21/00 A3023 RMK AO2
KBIH 181756Z AUTO 00000KT 10SM CLR 29/07 A3009 RMK AO2 SLP142 T02940067 10300 20106 58008
KBIH 181723Z 1818/1918 33009KT P6SM FEW100
       
KBLH 181852Z AUTO 17005KT 10SM CLR 35/03 A2985 RMK AO2 SLP099 T03500028
KBLH 181720Z 1818/1918 18011KT P6SM SKC
       
KBUR 181853Z 15005KT 5SM HZ OVC012 18/14 A2998 RMK AO2 SLP142 T01830144 $
KBUR 181726Z 1818/1918 13004KT 6SM HZ OVC010 
     FM181900 17006KT P6SM FEW022 
     FM182100 19011KT P6SM SKC 
     FM190400 VRB03KT P6SM SCT016 
     FM190700 16004KT P6SM OVC010 
     FM191600 14005KT P6SM OVC015
       
KC83 181840Z AUTO 33010G16KT 10SM CLR 33/12 A2988 RMK AO2
KCMA 181755Z 25003KT 10SM OVC016 18/14 A2997 RMK AO2 SLP157 T01830139 10189 20167 51010
KCMA 181803Z 1818/1918 VRB03KT P6SM OVC016 
     FM182000 24009KT P6SM SCT022 
     FM190400 VRB03KT P6SM BKN017 
     FM191000 VRB03KT 6SM BR OVC009 
     FM191600 32004KT P6SM OVC014
       
KCRQ 181853Z 25006KT 7SM OVC012 18/14 A2998 RMK AO2 SLP152 T01780144
KCRQ 181730Z 1818/1918 24005KT 5SM HZ OVC012 
     FM181930 25008KT P6SM BKN020 
     TEMPO 1820/1823 SCT020 
     FM190200 VRB04KT P6SM OVC015 
     FM190600 VRB04KT 5SM BR OVC010 
     TEMPO 1912/1916 2SM BR OVC008 
     FM191700 VRB04KT 6SM HZ BKN018
       
KCIC 181847Z 29017KT 25SM SKC 35/08 A2987
KCNO 181853Z VRB04KT 7SM FEW020 23/16 A2998 RMK AO2 SLP148 T02330156
KO22 181835Z AUTO 22003KT 10SM CLR 32/12 A2998 RMK A01
KCCR 181853Z 31011KT 10SM CLR 28/14 A2990 RMK AO2 SLP111 T02780139
KAJO 181853Z AUTO 25010KT 10SM SCT021 23/16 RMK AO2 $
KCEC 181756Z AUTO 36013G20KT 10SM CLR 16/11 A3007 RMK AO2 SLP183 T01560106 10156 20106 56004
KCEC 181735Z 1818/1918 35014G22KT P6SM FEW250 
     TEMPO 1820/1824 34018G28KT 6SM HZ FEW005 
     FM190500 34017G22KT P6SM SKC 
     FM191200 34012G17KT 5SM HZ FEW003
       
KDAG 181850Z AUTO 09009KT 10SM CLR 36/06 A2991 RMK AO2 SLP098 T03560056
KDAG 181723Z 1818/1918 06011KT P6SM FEW250 
     FM190300 27009KT P6SM SKC
       
KEDU 181835Z AUTO 35012KT 10SM CLR 36/18 A2987 RMK AO1
KDLO 181835Z AUTO 00000KT 10SM CLR 30/14 A2988 RMK AO2 T03010136
KEMT 181845Z 00000KT 8SM OVC019 19/14 A3000
KBLU 181852Z AUTO VRB03KT 10SM CLR 26/06 A3020 RMK AO2 SLP118 T02610056
KFOT 181835Z AUTO 28011G16KT 16/13 A3009 RMK AO1
KFCH 181835Z AUTO 26006KT 10SM CLR 31/17 A2989 RMK A01
KFAT 181853Z VRB04KT 10SM FEW065 32/16 A2988 RMK AO2 SLP112 HZ DSNT ALQDS T03220161
KFAT 181737Z 1818/1918 19006KT P6SM FEW200
       
KFUL 181853Z 00000KT 10SM OVC020 21/14 A2998 RMK AO2 SLP149 T02060139
KGOO 181840Z AUTO 31006KT 10SM CLR 31/07 A3004 RMK AO1
KHAF 181855Z AUTO 19006KT 9SM OVC005 15/13 A2998 RMK AO2
KHJO 181853Z AUTO 31006KT 10SM CLR 34/16 A2988 RMK AO2 SLP117 T03390161
KHHR 181853Z 27006KT 10SM OVC022 20/13 A2999 RMK AO2 SLP153 T02000133
KHWD 181854Z 27008KT 10SM CLR 23/14 A2994 RMK AO2 SLP146 T02280144
KCVH 181855Z AUTO 00000KT 8SM CLR 26/14 A2994 RMK A01
KIPL 181853Z AUTO 09007KT 10SM CLR 33/12 A2982 RMK AO2 SLP100 T03330122
KIPL 181720Z 1818/1918 12008KT P6SM SKC 
     FM190300 27010KT P6SM SKC 
     FM190700 13009KT P6SM SKC
       
KJAQ 181835Z AUTO 32005KT 10SM CLR 30/15 A2995 RMK AO1 T03030150
KWJF 181756Z 06011KT 10SM CLR 33/07 A2996 RMK AO2 SLP120 T03330067 10333 20167 50001
KWJF 181726Z 1818/1918 00000KT P6SM SKC 
     FM182300 24015G23KT P6SM SKC 
     FM190300 23011KT P6SM SKC
       
KPOC 181847Z 27007KT 10SM CLR 20/14 A2999
KLHM 181835Z AUTO 28005KT 10SM CLR 32/18 A2985 RMK AO1
KLVK 181853Z 26008KT 10SM CLR 30/14 A2990 RMK AO2 SLP120 T03000144
KLVK 181739Z 1818/1918 24004KT P6SM SKC 
     FM182000 28007KT P6SM SKC 
     FM182300 29012KT P6SM SKC 
     FM190300 30006KT P6SM SKC 
     FM191000 29005KT P6SM FEW010
       
KLPC 181756Z AUTO 28006KT 10SM CLR 20/14 A2996 RMK AO2 SLP145 T02000144 10206 20133 50001
KLGB 181853Z 19005KT 10SM OVC018 19/14 A2999 RMK AO2 SLP153 T01890139
KLGB 181726Z 1818/1918 VRB03KT P6SM OVC017 
     FM182000 20008KT P6SM SCT027 
     FM190200 29008KT P6SM SCT022 
     FM190530 VRB03KT P6SM BKN013 
     FM191600 14005KT P6SM OVC018
       
KWHP 181650Z 12005KT 7SM OVC012 17/14 A3000
KLAX 181853Z 25008KT 8SM SCT017 OVC021 19/14 A2999 RMK AO2 SLP152 T01940144
KLAX 181726Z 1818/1924 00000KT P6SM SCT011 OVC017 
     FM181900 26007KT P6SM OVC020 
     FM182200 26012KT P6SM BKN025 
     FM190300 26008KT P6SM OVC015 
     FM190700 VRB03KT P6SM OVC012 
     FM191800 26005KT P6SM OVC020 
     FM192000 26010KT P6SM BKN023
       
KMAE 181853Z AUTO VRB04KT 10SM CLR 31/17 A2988 RMK AO2 SLP115 T03110167
KMMH 181835Z AUTO 16003KT 10SM CLR 24/00 A3032 RMK AO2 T02350000
KMMH 181722Z 1818/1918 05009KT P6SM FEW100 
     FM182200 30010KT P6SM SCT100 
     FM190600 VRB03KT P6SM SKC
       
KMYV 181853Z AUTO 34009KT 10SM CLR 35/16 A2985 RMK AO2 SLP112 T03500156
KMER 181845Z 33007KT 10SM SKC 33/16 A2988
KMER 181737Z 1818/1918 34007KT P6SM FEW200
       
KMCE 181853Z AUTO 33006KT 10SM CLR 31/17 A2987 RMK AO2 SLP112 T03110172
KMCE 181737Z 1818/1918 32006KT P6SM FEW200
       
KMOD 181853Z 32010KT 10SM CLR 32/17 A2986 RMK AO2 SLP112 T03170167
KMOD 181739Z 1818/1918 33011KT P6SM SKC 
     FM190800 36004KT P6SM SKC
       
KMHV 181840Z AUTO 06007G15KT 10SM CLR 33/04 A2998 RMK A01
KSIY 181853Z AUTO VRB04KT 10SM CLR 28/06 A3013 RMK AO2 SLP186 T02830056
KMRY 181854Z 34007KT 9SM CLR 18/12 A2997 RMK AO2 SLP159 T01780122
KMRY 181739Z 1818/1918 VRB05KT P6SM FEW008 
     FM182000 25010KT P6SM FEW010 
     FM190300 VRB03KT P6SM BKN007 
     FM190900 VRB03KT 6SM BR OVC003 
     FM191600 VRB04KT P6SM BKN007
       
KF70 181835Z AUTO 19007KT 10SM CLR 20/14 A2998 RMK AO1
KAPC 181854Z 20011KT 10SM CLR 22/15 A2993 RMK AO2 SLP127 T02170150
KEED 181756Z AUTO VRB03KT 10SM CLR 37/06 A2986 RMK AO2 SLP075 T03670056 10367 20267 51003
KEED 181723Z 1818/1918 17009KT P6SM FEW250 
     FM190400 23008KT P6SM SKC
       
KDVO 181835Z AUTO 05006KT 10SM CLR 24/16 A2993 RMK AO2
KOAK 181853Z 30011KT 10SM FEW008 21/14 A2995 RMK AO2 SLP141 T02110139
KOAK 181739Z 1818/1924 28008KT P6SM FEW012 
     FM182100 31013KT P6SM SKC 
     FM190400 31006KT P6SM FEW010 
     FM190900 28006KT P6SM BKN007 
     FM191700 31012KT P6SM SKC
       
KL52 181855Z AUTO 25007KT 9SM BKN004 16/14 A2999 RMK A01
KONT 181853Z 23007KT 5SM HZ FEW032 24/16 A2997 RMK AO2 SLP137 T02390156
KONT 181730Z 1818/1924 24005KT 5SM HZ SCT015 
     FM182000 26011KT P6SM SKC 
     FM190400 25006KT P6SM SCT015 
     FM190700 VRB04KT P6SM OVC010 
     FM191300 VRB03KT 3SM HZ OVC009 
     FM191700 VRB05KT 5SM HZ SCT015 
     FM192000 26012KT P6SM SKC
       
KOVE 181853Z AUTO 29008KT 10SM CLR 34/16 A2987 RMK AO2 SLP113 T03440161
KOXR 181851Z VRB04KT 10SM OVC015 18/14 A2999 RMK AO2 SLP153 T01830144
KOXR 181726Z 1818/1918 32003KT P6SM OVC014 
     FM182000 26008KT P6SM BKN020 
     FM182300 27010KT P6SM SCT022 
     FM190200 28008KT P6SM BKN017 
     FM191000 VRB03KT 6SM BR OVC009 
     FM191600 32004KT P6SM OVC014
       
KPMD 181853Z 04007KT 10SM CLR 34/06 A2997 RMK AO2 SLP116 T03440061
KPMD 181726Z 1818/1918 00000KT P6SM SKC 
     FM182300 24014G20KT P6SM SKC 
     FM190300 23011KT P6SM SKC 
     FM190700 20008KT P6SM SKC
       
KTRM 181852Z AUTO VRB05KT 10SM CLR 36/11 A2981 RMK AO2 SLP097 T03560111
KTRM 181730Z 1818/1918 14010KT P6SM SKC 
     FM190300 33008KT P6SM SKC
       
KPSP 181853Z 08005KT 10SM CLR 34/12 A2986 RMK AO2 SLP106 T03440117
KPSP 181730Z 1818/1918 11008KT P6SM SKC 
     FM190100 33011KT P6SM SKC 
     FM190600 VRB04KT P6SM SKC
       
KPAO 181747Z 36007KT 10SM SKC 20/16 A2995
KPRB 181853Z AUTO 26005KT 10SM CLR 28/14 A2992 RMK AO2 SLP125 T02830144
KPRB 181726Z 1818/1918 21008KT P6SM SKC 
     FM182100 21015G25KT P6SM SKC 
     FM190300 20010KT P6SM SKC 
     FM191100 VRB03KT P6SM BKN008 
     FM191600 18005KT P6SM SKC
       
KO69 181835Z AUTO 29009KT 10SM CLR 21/16 A2995 RMK A01
KPVF 181835Z AUTO 28006KT CLR 31/09 RMK AO1
KPTV 181756Z AUTO 23004KT 10SM CLR 31/17 A2990 RMK AO2 SLP129 T03060172 10306 20189 53001
KRNM 181853Z 31007KT 10SM CLR 22/13 A2998 RMK AO2 SLP141 T02170133
KRBL 181854Z AUTO 34015KT 10SM CLR 36/09 A2989 RMK AO2 SLP117 T03610094
KRBL 181739Z 1818/1918 35014G24KT P6SM SKC 
     FM190300 33006KT P6SM SKC 
     FM191700 35011G16KT P6SM SKC
       
KRDD 181853Z 36014G20KT 10SM CLR 36/07 A2989 RMK AO2 SLP114 T03560072
KRDD 181739Z 1818/1918 35015G23KT P6SM SKC 
     FM190100 36005KT P6SM SKC 
     FM191700 36010G16KT P6SM SKC
       
KO32 181830Z AUTO 11004KT 10SM 31/17 A2989 RMK AO2